createdAt,value
2022-08-27T00:02:12.701Z,99957.66
2022-08-27T00:05:18.543Z,99958.28
2022-08-27T00:08:25.505Z,99955.72
2022-08-27T00:11:28.768Z,99949.44
2022-08-27T00:14:33.942Z,99942.25
2022-08-27T00:17:37.635Z,99934.94
2022-08-27T00:20:40.611Z,99935.69
2022-08-27T00:23:45.238Z,99941.59
2022-08-27T00:26:48.207Z,99931.69
2022-08-27T00:29:51.262Z,99926.94
2022-08-27T00:32:54.225Z,99918.22
2022-08-27T00:35:57.355Z,99914.56
2022-08-27T00:39:01.945Z,99912.91
2022-08-27T00:42:06.346Z,99915.16
2022-08-27T00:45:10.255Z,99920.28
2022-08-27T00:48:18.201Z,99905.66
2022-08-27T00:51:22.292Z,99908.50
2022-08-27T00:54:28.218Z,99902.84
2022-08-27T00:57:32.123Z,99911.16
2022-08-27T01:00:36.224Z,99900.84
2022-08-27T01:03:40.210Z,99912.97
2022-08-27T01:06:43.325Z,99924.56
2022-08-27T01:09:50.028Z,99926.47
2022-08-27T01:12:54.553Z,99920.34
2022-08-27T01:15:59.053Z,99920.97
2022-08-27T01:19:02.800Z,99911.41
2022-08-27T01:22:21.743Z,99907.38
2022-08-27T01:25:28.526Z,99901.34
2022-08-27T01:28:36.695Z,99903.34
2022-08-27T01:31:40.835Z,99910.28
2022-08-27T01:34:44.588Z,99908.88
2022-08-27T01:37:52.239Z,99908.88
2022-08-27T01:40:56.856Z,99905.03
2022-08-27T01:44:00.069Z,99902.22
2022-08-27T01:47:03.347Z,99898.94
2022-08-27T01:50:10.683Z,99897.53
2022-08-27T01:53:19.197Z,99895.72
2022-08-27T01:56:23.495Z,99899.00
2022-08-27T01:59:39.606Z,99895.34
2022-08-27T02:02:44.462Z,99889.84
2022-08-27T02:05:49.800Z,99891.25
2022-08-27T02:08:52.812Z,99892.88
2022-08-27T02:11:57.492Z,99890.25
2022-08-27T02:15:00.785Z,99889.59
2022-08-27T02:18:06.408Z,99896.56
2022-08-27T02:21:09.382Z,99902.25
2022-08-27T02:24:12.398Z,99893.72
2022-08-27T02:27:16.739Z,99894.53
2022-08-27T02:30:23.841Z,99894.66
2022-08-27T02:33:27.240Z,99894.66
2022-08-27T02:36:30.483Z,99896.47
2022-08-27T02:39:33.576Z,99892.03
2022-08-27T02:42:38.030Z,99895.66
2022-08-27T02:45:40.986Z,99887.72
2022-08-27T02:48:44.841Z,99883.91
2022-08-27T02:51:47.820Z,99881.88
2022-08-27T02:54:53.551Z,99870.72
2022-08-27T02:57:58.587Z,99876.25
2022-08-27T03:01:02.198Z,99868.16
2022-08-27T03:04:05.457Z,99873.66
2022-08-27T03:07:08.555Z,99871.81
2022-08-27T03:10:20.183Z,99882.00
2022-08-27T03:13:25.912Z,99881.88
2022-08-27T03:16:29.404Z,99881.38
2022-08-27T03:19:32.320Z,99883.81
2022-08-27T03:22:35.460Z,99886.84
2022-08-27T03:25:39.205Z,99871.56
2022-08-27T03:28:43.889Z,99864.09
2022-08-27T03:31:47.323Z,99864.91
2022-08-27T03:34:50.403Z,99863.28
2022-08-27T03:37:53.387Z,99850.41
2022-08-27T03:40:56.659Z,99848.03
2022-08-27T03:44:01.724Z,99837.44
2022-08-27T03:47:05.070Z,99846.03
2022-08-27T03:50:11.054Z,99846.03
2022-08-27T03:53:15.123Z,99848.03
2022-08-27T03:56:18.122Z,99846.19
2022-08-27T03:59:22.413Z,99839.84
2022-08-27T04:02:26.082Z,99838.84
2022-08-27T04:05:29.123Z,99834.38
2022-08-27T04:08:32.130Z,99831.53
2022-08-27T04:11:35.999Z,99829.47
2022-08-27T04:14:40.321Z,99837.59
2022-08-27T04:17:43.783Z,99835.53
2022-08-27T04:20:48.699Z,99838.16
2022-08-27T04:23:51.835Z,99835.72
2022-08-27T04:26:56.771Z,99839.19
2022-08-27T04:30:03.043Z,99826.53
2022-08-27T04:33:06.100Z,99837.47
2022-08-27T04:36:11.191Z,99830.34
2022-08-27T04:39:15.238Z,99822.44
2022-08-27T04:42:19.367Z,99827.91
2022-08-27T04:45:23.664Z,99827.72
2022-08-27T04:48:27.066Z,99826.31
2022-08-27T04:51:31.206Z,99822.66
2022-08-27T04:54:35.140Z,99824.50
2022-08-27T04:57:38.150Z,99828.13
2022-08-27T05:00:49.339Z,99824.44
2022-08-27T05:03:53.569Z,99828.56
2022-08-27T05:06:56.802Z,99833.00
2022-08-27T05:09:59.944Z,99832.00
2022-08-27T05:13:02.956Z,99828.97
2022-08-27T05:16:12.308Z,99825.91
2022-08-27T05:19:15.534Z,99821.69
2022-08-27T05:22:18.532Z,99823.31
2022-08-27T05:25:21.507Z,99821.44
2022-08-27T05:28:27.843Z,99825.47
2022-08-27T05:31:32.769Z,99823.03
2022-08-27T05:34:35.827Z,99821.13
2022-08-27T05:37:39.082Z,99816.47
2022-08-27T05:40:43.784Z,99814.19
2022-08-27T05:43:50.164Z,99817.09
2022-08-27T05:46:54.980Z,99820.13
2022-08-27T05:49:58.072Z,99816.06
2022-08-27T05:53:01.020Z,99807.78
2022-08-27T05:56:04.668Z,99805.63
2022-08-27T05:59:25.967Z,99805.41
2022-08-27T06:02:30.937Z,99808.25
2022-08-27T06:05:34.030Z,99810.66
2022-08-27T06:08:37.929Z,99810.66
2022-08-27T06:11:40.941Z,99815.53
2022-08-27T06:14:43.965Z,99820.38
2022-08-27T06:17:48.333Z,99818.97
2022-08-27T06:20:51.322Z,99816.75
2022-08-27T06:23:55.823Z,99808.25
2022-08-27T06:26:59.456Z,99815.19
2022-08-27T06:30:05.781Z,99825.16
2022-08-27T06:33:10.312Z,99822.06
2022-08-27T06:36:18.267Z,99825.16
2022-08-27T06:39:21.627Z,99825.28
2022-08-27T06:42:24.598Z,99836.34
2022-08-27T06:45:29.174Z,99832.63
2022-08-27T06:48:33.536Z,99831.88
2022-08-27T06:51:39.047Z,99838.16
2022-08-27T06:54:42.034Z,99837.59
2022-08-27T06:57:44.996Z,99841.50
2022-08-27T07:00:49.096Z,99841.63
2022-08-27T07:03:57.254Z,99844.50
2022-08-27T07:07:00.314Z,99855.13
2022-08-27T07:10:04.176Z,99867.34
2022-08-27T07:13:07.435Z,99868.31
2022-08-27T07:16:13.783Z,99868.00
2022-08-27T07:19:18.389Z,99878.13
2022-08-27T07:22:21.370Z,99875.13
2022-08-27T07:25:24.334Z,99876.09
2022-08-27T07:28:28.814Z,99869.81
2022-08-27T07:31:32.134Z,99879.50
2022-08-27T07:34:36.540Z,99879.16
2022-08-27T07:37:41.863Z,99881.28
2022-08-27T07:40:45.111Z,99875.22
2022-08-27T07:44:06.103Z,99883.16
2022-08-27T07:47:09.444Z,99881.75
2022-08-27T07:50:14.884Z,99891.47
2022-08-27T07:53:18.095Z,99889.28
2022-08-27T07:56:22.120Z,99901.06
2022-08-27T07:59:27.176Z,99903.72
2022-08-27T08:02:31.499Z,99905.72
2022-08-27T08:05:36.022Z,99915.94
2022-08-27T08:08:41.157Z,99920.91
2022-08-27T08:11:47.052Z,99918.06
2022-08-27T08:14:50.258Z,99926.38
2022-08-27T08:17:53.263Z,99931.25
2022-08-27T08:21:02.041Z,99935.06
2022-08-27T08:24:05.554Z,99943.00
2022-08-27T08:27:08.709Z,99934.69
2022-08-27T08:30:13.166Z,99933.13
2022-08-27T08:33:17.107Z,99934.69
2022-08-27T08:36:21.478Z,99927.38
2022-08-27T08:39:25.362Z,99925.38
2022-08-27T08:42:35.833Z,99924.72
2022-08-27T08:45:42.224Z,99918.81
2022-08-27T08:48:50.431Z,99921.06
2022-08-27T08:51:58.516Z,99912.00
2022-08-27T08:55:14.305Z,99918.72
2022-08-27T08:58:27.826Z,99930.34
2022-08-27T09:01:33.429Z,99939.41
2022-08-27T09:04:36.919Z,99953.03
2022-08-27T09:07:49.638Z,99956.97
2022-08-27T09:11:00.953Z,99956.94
2022-08-27T09:14:13.196Z,99966.50
2022-08-27T09:17:16.373Z,99949.31
2022-08-27T09:20:25.580Z,99943.19
2022-08-27T09:23:38.715Z,99948.47
2022-08-27T09:26:44.820Z,99951.72
2022-08-27T09:29:51.655Z,99957.06
2022-08-27T09:32:56.797Z,99959.13
2022-08-27T09:36:04.883Z,99970.38
2022-08-27T09:39:09.851Z,99974.88
2022-08-27T09:42:43.126Z,99994.44
2022-08-27T09:45:51.808Z,100017.78
2022-08-27T09:48:57.046Z,100025.97
2022-08-27T09:52:00.066Z,100039.91
2022-08-27T09:55:05.431Z,100063.06
2022-08-27T09:58:18.609Z,100074.84
2022-08-27T10:01:25.207Z,100069.94
2022-08-27T10:04:50.130Z,100080.38
2022-08-27T10:08:01.029Z,100103.25
2022-08-27T10:11:11.606Z,100104.16
2022-08-27T10:14:20.222Z,100121.66
2022-08-27T10:17:34.312Z,100122.91
2022-08-27T10:21:04.869Z,100128.78
2022-08-27T10:24:25.537Z,100132.59
2022-08-27T10:27:40.429Z,100121.72
2022-08-27T10:31:08.232Z,100135.81
2022-08-27T10:34:32.387Z,100136.81
2022-08-27T10:37:48.753Z,100156.38
2022-08-27T10:40:58.134Z,100151.13
2022-08-27T10:44:23.980Z,100160.78
2022-08-27T10:47:44.890Z,100161.19
2022-08-27T10:50:54.637Z,100150.44
2022-08-27T10:54:07.347Z,100149.75
2022-08-27T10:57:35.180Z,100170.75
2022-08-27T11:00:48.856Z,100187.41
2022-08-27T11:03:56.254Z,100176.28
2022-08-27T11:07:08.330Z,100180.97
2022-08-27T11:10:20.952Z,100185.06
2022-08-27T11:13:32.384Z,100196.81
2022-08-27T11:16:45.617Z,100185.22
2022-08-27T11:19:56.439Z,100192.53
2022-08-27T11:23:05.903Z,100191.91
2022-08-27T11:26:09.396Z,100187.25
2022-08-27T11:29:19.790Z,100184.47
2022-08-27T11:32:31.283Z,100194.31
2022-08-27T11:35:52.629Z,100198.06
2022-08-27T11:39:01.752Z,100188.97
2022-08-27T11:42:10.871Z,100222.81
2022-08-27T11:45:20.716Z,100233.31
2022-08-27T11:48:28.662Z,100237.56
2022-08-27T11:51:35.023Z,100279.69
2022-08-27T11:54:48.055Z,100290.16
2022-08-27T11:58:12.177Z,100345.16
2022-08-27T12:01:26.878Z,100313.63
2022-08-27T12:04:40.198Z,100318.13
2022-08-27T12:07:47.306Z,100351.50
2022-08-27T12:11:06.448Z,100338.38
2022-08-27T12:14:25.457Z,100316.38
2022-08-27T12:17:39.871Z,100337.63
2022-08-27T12:20:58.311Z,100358.69
2022-08-27T12:24:20.503Z,100339.50
2022-08-27T12:27:34.320Z,100320.28
2022-08-27T12:30:41.309Z,100319.84
2022-08-27T12:33:48.495Z,100316.13
2022-08-27T12:36:55.902Z,100313.69
2022-08-27T12:40:06.917Z,100303.53
2022-08-27T12:43:14.512Z,100339.97
2022-08-27T12:46:20.234Z,100325.81
2022-08-27T12:49:37.120Z,100392.22
2022-08-27T12:53:13.639Z,100395.69
2022-08-27T12:56:47.395Z,100406.72
2022-08-27T13:00:07.463Z,100402.41
2022-08-27T13:03:26.103Z,100366.59
2022-08-27T13:06:33.187Z,100351.84
2022-08-27T13:09:40.264Z,100336.91
2022-08-27T13:12:45.186Z,100358.81
2022-08-27T13:15:52.637Z,100346.31
2022-08-27T13:18:56.195Z,100363.09
2022-08-27T13:22:01.401Z,100356.78
2022-08-27T13:25:07.698Z,100348.78
2022-08-27T13:28:15.052Z,100362.91
2022-08-27T13:31:18.524Z,100379.72
2022-08-27T13:34:25.565Z,100381.34
2022-08-27T13:37:35.100Z,100355.53
2022-08-27T13:40:55.453Z,100365.34
2022-08-27T13:43:59.839Z,100380.09
2022-08-27T13:47:07.297Z,100395.25
2022-08-27T13:50:25.507Z,100408.84
2022-08-27T13:53:49.675Z,100450.34
2022-08-27T13:57:08.458Z,100435.34
2022-08-27T14:00:16.205Z,100458.97
2022-08-27T14:03:32.418Z,100402.09
2022-08-27T14:06:43.196Z,100446.63
2022-08-27T14:09:54.618Z,100447.97
2022-08-27T14:13:02.472Z,100454.44
2022-08-27T14:16:16.827Z,100455.66
2022-08-27T14:19:28.921Z,100441.56
2022-08-27T14:22:36.466Z,100418.63
2022-08-27T14:25:41.077Z,100440.97
2022-08-27T14:28:46.545Z,100445.69
2022-08-27T14:31:49.765Z,100424.53
2022-08-27T14:34:53.278Z,100399.56
2022-08-27T14:37:56.723Z,100400.38
2022-08-27T14:40:59.861Z,100440.31
2022-08-27T14:44:05.369Z,100418.19
2022-08-27T14:47:10.738Z,100439.13
2022-08-27T14:50:14.346Z,100412.50
2022-08-27T14:53:19.776Z,100411.88
2022-08-27T14:56:24.610Z,100400.41
2022-08-27T14:59:29.262Z,100429.84
2022-08-27T15:02:33.027Z,100424.75
2022-08-27T15:05:36.717Z,100423.28
2022-08-27T15:08:39.766Z,100403.84
2022-08-27T15:11:46.909Z,100396.63
2022-08-27T15:14:51.213Z,100399.94
2022-08-27T15:17:54.266Z,100420.34
2022-08-27T15:20:57.326Z,100419.97
2022-08-27T15:24:03.669Z,100414.63
2022-08-27T15:27:07.199Z,100396.81
2022-08-27T15:30:15.448Z,100389.44
2022-08-27T15:33:20.389Z,100382.88
2022-08-27T15:36:23.458Z,100391.06
2022-08-27T15:39:26.491Z,100398.78
2022-08-27T15:42:29.743Z,100377.50
2022-08-27T15:45:34.180Z,100372.78
2022-08-27T15:48:37.667Z,100353.34
2022-08-27T15:51:40.782Z,100339.00
2022-08-27T15:54:44.622Z,100330.81
2022-08-27T15:57:48.177Z,100330.81
2022-08-27T16:01:01.652Z,100337.75
2022-08-27T16:04:06.918Z,100335.88
2022-08-27T16:07:09.923Z,100331.50
2022-08-27T16:10:15.336Z,100321.47
2022-08-27T16:13:19.624Z,100318.75
2022-08-27T16:16:27.438Z,100315.44
2022-08-27T16:19:31.027Z,100318.88
2022-08-27T16:22:35.708Z,100312.50
2022-08-27T16:25:38.676Z,100300.41
2022-08-27T16:28:41.652Z,100292.03
2022-08-27T16:31:46.035Z,100306.09
2022-08-27T16:34:55.565Z,100306.06
2022-08-27T16:37:59.350Z,100288.31
2022-08-27T16:41:03.601Z,100284.19
2022-08-27T16:44:07.692Z,100289.47
2022-08-27T16:47:12.642Z,100292.72
2022-08-27T16:50:33.759Z,100299.63
2022-08-27T16:53:41.545Z,100296.41
2022-08-27T16:56:46.278Z,100303.75
2022-08-27T16:59:49.460Z,100300.84
2022-08-27T17:02:54.194Z,100300.47
2022-08-27T17:05:58.704Z,100289.63
2022-08-27T17:09:05.925Z,100293.19
2022-08-27T17:12:09.440Z,100306.69
2022-08-27T17:15:14.464Z,100308.28
2022-08-27T17:18:21.037Z,100300.38
2022-08-27T17:21:29.132Z,100302.34
2022-08-27T17:24:33.079Z,100304.34
2022-08-27T17:27:36.112Z,100305.50
2022-08-27T17:30:39.477Z,100307.44
2022-08-27T17:33:48.744Z,100309.84
2022-08-27T17:36:52.531Z,100299.38
2022-08-27T17:39:55.767Z,100291.41
2022-08-27T17:42:58.832Z,100292.75
2022-08-27T17:46:01.902Z,100282.72
2022-08-27T17:49:06.282Z,100298.16
2022-08-27T17:52:15.092Z,100285.19
2022-08-27T17:55:18.650Z,100304.28
2022-08-27T17:58:22.366Z,100302.56
2022-08-27T18:01:32.264Z,100303.31
2022-08-27T18:04:37.777Z,100298.56
2022-08-27T18:07:41.871Z,100313.53
2022-08-27T18:10:45.468Z,100320.84
2022-08-27T18:13:53.368Z,100314.47
2022-08-27T18:16:56.373Z,100309.63
2022-08-27T18:20:01.578Z,100314.91
2022-08-27T18:23:05.426Z,100325.25
2022-08-27T18:26:14.574Z,100337.41
2022-08-27T18:29:18.141Z,100355.19
2022-08-27T18:32:21.201Z,100353.56
2022-08-27T18:35:30.269Z,100360.69
2022-08-27T18:38:33.956Z,100367.53
2022-08-27T18:41:36.962Z,100377.00
2022-08-27T18:44:43.672Z,100373.16
2022-08-27T18:47:46.964Z,100373.53
2022-08-27T18:50:58.731Z,100379.19
2022-08-27T18:54:02.144Z,100377.56
2022-08-27T18:57:05.236Z,100366.50
2022-08-27T19:00:12.855Z,100372.78
2022-08-27T19:03:23.354Z,100363.84
2022-08-27T19:06:27.761Z,100384.59
2022-08-27T19:09:30.859Z,100391.41
2022-08-27T19:12:34.176Z,100401.53
2022-08-27T19:15:43.864Z,100414.47
2022-08-27T19:18:47.640Z,100415.75
2022-08-27T19:21:53.198Z,100426.53
2022-08-27T19:24:56.170Z,100445.06
2022-08-27T19:27:59.430Z,100447.28
2022-08-27T19:31:02.390Z,100448.44
2022-08-27T19:34:06.672Z,100460.13
2022-08-27T19:37:18.649Z,100467.59
2022-08-27T19:40:22.998Z,100470.41
2022-08-27T19:43:26.607Z,100459.84
2022-08-27T19:46:29.945Z,100464.78
2022-08-27T19:49:33.352Z,100459.03
2022-08-27T19:52:37.654Z,100465.94
2022-08-27T19:55:45.077Z,100463.16
2022-08-27T19:58:48.541Z,100451.41
2022-08-27T20:01:52.724Z,100444.69
2022-08-27T20:05:16.321Z,100445.50
2022-08-27T20:08:21.122Z,100438.69
2022-08-27T20:11:24.244Z,100440.50
2022-08-27T20:14:28.072Z,100437.09
2022-08-27T20:17:33.995Z,100428.22
2022-08-27T20:20:37.443Z,100421.59
2022-08-27T20:23:42.320Z,100420.56
2022-08-27T20:26:45.973Z,100415.28
2022-08-27T20:29:49.160Z,100421.59
2022-08-27T20:32:52.291Z,100419.94
2022-08-27T20:35:56.487Z,100403.78
2022-08-27T20:39:01.607Z,100394.84
2022-08-27T20:42:05.891Z,100402.44
2022-08-27T20:45:12.341Z,100397.81
2022-08-27T20:48:15.856Z,100394.38
2022-08-27T20:51:19.283Z,100391.56
2022-08-27T20:54:24.177Z,100388.53
2022-08-27T20:57:27.282Z,100391.38
2022-08-27T21:00:30.041Z,100392.72
2022-08-27T21:03:33.087Z,100384.78
2022-08-27T21:06:36.698Z,100385.09
2022-08-27T21:09:55.553Z,100385.63
2022-08-27T21:13:04.522Z,100381.97
2022-08-27T21:16:08.805Z,100380.03
2022-08-27T21:19:11.932Z,100381.66
2022-08-27T21:22:15.192Z,100384.78
2022-08-27T21:25:19.828Z,100387.97
2022-08-27T21:28:23.162Z,100388.63
2022-08-27T21:31:26.509Z,100378.50
2022-08-27T21:34:31.013Z,100379.03
2022-08-27T21:37:36.343Z,100372.88
2022-08-27T21:40:40.793Z,100364.75
2022-08-27T21:43:43.904Z,100359.34
2022-08-27T21:46:47.570Z,100353.25
2022-08-27T21:49:50.640Z,100346.06
2022-08-27T21:52:54.074Z,100335.50
2022-08-27T21:55:58.484Z,100334.16
2022-08-27T21:59:01.455Z,100336.16
2022-08-27T22:02:13.721Z,100335.50
2022-08-27T22:05:27.837Z,100324.09
2022-08-27T22:08:30.941Z,100322.38
2022-08-27T22:11:36.078Z,100315.06
2022-08-27T22:14:41.068Z,100308.44
2022-08-27T22:17:46.248Z,100318.38
2022-08-27T22:20:53.242Z,100310.59
2022-08-27T22:23:56.492Z,100300.84
2022-08-27T22:27:00.789Z,100297.56
2022-08-27T22:30:09.606Z,100291.47
2022-08-27T22:33:14.608Z,100283.34
2022-08-27T22:36:17.799Z,100279.97
2022-08-27T22:39:21.293Z,100273.50
2022-08-27T22:42:28.461Z,100263.25
2022-08-27T22:45:32.265Z,100253.41
2022-08-27T22:48:35.287Z,100253.50
2022-08-27T22:51:38.350Z,100245.91
2022-08-27T22:54:41.488Z,100235.53
2022-08-27T22:57:46.416Z,100236.81
2022-08-27T23:00:52.747Z,100227.47
2022-08-27T23:03:56.565Z,100224.00
2022-08-27T23:07:01.097Z,100219.53
2022-08-27T23:10:06.038Z,100213.59
2022-08-27T23:13:11.115Z,100210.03
2022-08-27T23:16:15.709Z,100207.75
2022-08-27T23:19:19.389Z,100214.72
2022-08-27T23:22:22.764Z,100201.50
2022-08-27T23:25:45.010Z,100197.94
2022-08-27T23:28:49.506Z,100192.56
2022-08-27T23:31:53.373Z,100178.88
2022-08-27T23:34:56.963Z,100165.22
2022-08-27T23:38:00.224Z,100166.03
2022-08-27T23:41:03.235Z,100165.06
2022-08-27T23:44:07.527Z,100155.47
2022-08-27T23:47:11.112Z,100160.75
2022-08-27T23:50:15.643Z,100159.94
2022-08-27T23:53:18.756Z,100161.91
2022-08-27T23:56:21.850Z,100161.38
2022-08-27T23:59:34.251Z,100162.69
